CW4778 Auckland NZ current weather conditions

sailwx.info

Wind from 334 at 2 knots gusting 7

Air temperature 21.7° C
Dewpoint 16.2° C

Last reported at 2017-Nov-20 21:08 UTC.
Time now 2017-Nov-20 21:37 UTC

Location: S 36°52' E 174°44'.
View on Google Maps.

See reports from other nearby stations

  
Tides and Currents Weather Stations Pressure Air Temp Water Temp Dewpoint Dewpoint Depression Visibility Wind Speed Wind Dir Waves Ship Positions
date/time (UTC)wind fromknots sea level pressurealtimeterstation pressurevisibilityair tempwater tempwave heightnotes
2017-Nov-20 21:08 334 2 gusting 7 21.7
2017-Nov-20 20:58 357 2 gusting 6 21.7
2017-Nov-20 20:28 008 2 gusting 6 21.1
2017-Nov-20 20:18 318 20.6
2017-Nov-20 20:08 051 19.4
2017-Nov-20 19:58 023 2 gusting 7 18.9
2017-Nov-20 19:48 023 0 gusting 4 18.3
2017-Nov-20 19:38 358 0 gusting 4 18.3
2017-Nov-20 19:18 035 17.8
2017-Nov-20 19:08 327 16.7
2017-Nov-20 18:38 030 15.6
2017-Nov-20 18:28 032 15.0
2017-Nov-20 18:18 031 14.4
2017-Nov-20 17:58 032 13.3
2017-Nov-20 17:48 030 12.2
2017-Nov-20 17:38 031 12.2
2017-Nov-20 17:28 030 12.2
2017-Nov-20 17:08 032 12.2
2017-Nov-20 16:58 031 12.2
2017-Nov-20 16:48 031 12.2
2017-Nov-20 16:38 032 12.2
2017-Nov-20 16:18 031 12.2
2017-Nov-20 15:58 031 12.2
2017-Nov-20 15:38 033 12.2
2017-Nov-20 15:18 035 12.8
2017-Nov-20 15:08 033 12.8
2017-Nov-20 14:38 032 13.3
2017-Nov-20 14:28 032 13.3
2017-Nov-20 14:18 032 13.9
2017-Nov-20 14:08 031 13.9
2017-Nov-20 13:58 035 14.4
2017-Nov-20 13:48 033 14.4
2017-Nov-20 13:38 031 14.4
2017-Nov-20 13:28 033 14.4
2017-Nov-20 13:08 033 15.0
2017-Nov-20 12:58 030 15.6
2017-Nov-20 12:38 026 0 gusting 6 15.6
2017-Nov-20 12:18 026 0 gusting 6 16.1
2017-Nov-20 12:08 026 4 gusting 6 16.1
2017-Nov-20 11:58 025 2 gusting 5 16.1
2017-Nov-20 11:48 021 0 gusting 6 16.1
2017-Nov-20 11:38 048 0 gusting 6 16.1
2017-Nov-20 11:28 026 2 gusting 6 16.1
2017-Nov-20 11:18 021 0 gusting 7 16.7
2017-Nov-20 10:38 018 3 gusting 7 16.7
2017-Nov-20 10:28 014 1 gusting 5 16.7
2017-Nov-20 10:18 001 1 gusting 5 16.7
2017-Nov-20 10:08 032 1 gusting 5 16.7
2017-Nov-20 09:58 004 1 gusting 7 16.7
2017-Nov-20 09:48 030 1 gusting 5 16.7
2017-Nov-20 09:28 014 0 gusting 6 17.2
2017-Nov-20 09:18 016 1 gusting 6 17.2
2017-Nov-20 08:58 036 17.2
2017-Nov-20 08:48 025 1 gusting 6 17.2
2017-Nov-20 08:18 030 0 gusting 5 17.2
2017-Nov-20 08:08 021 0 gusting 7 17.2
2017-Nov-20 07:38 060 17.8
2017-Nov-20 07:28 058 17.8
2017-Nov-20 07:18 066 17.8
2017-Nov-20 07:08 075 17.8
2017-Nov-20 06:58 169 17.8
2017-Nov-20 06:48 164 18.3
2017-Nov-20 06:28 194 0 gusting 5 18.9
2017-Nov-20 06:18 166 0 gusting 6 19.4
2017-Nov-20 06:08 172 0 gusting 5 19.4
2017-Nov-20 05:58 117 20.0
2017-Nov-20 05:48 099 20.0
2017-Nov-20 05:18 067 0 gusting 5 20.6
2017-Nov-20 05:08 042 0 gusting 4 20.6
2017-Nov-20 04:48 048 2 gusting 6 20.0
2017-Nov-20 04:08 118 4 gusting 7 21.7
2017-Nov-20 03:48 045 6 gusting 11 21.7
2017-Nov-20 03:38 055 6 gusting 11 22.2
2017-Nov-20 03:28 024 11 gusting 13 21.7
2017-Nov-20 03:18 025 8 gusting 12 22.2
2017-Nov-20 03:08 018 9 gusting 14 22.2
2017-Nov-20 02:58 059 6 gusting 8 22.2
2017-Nov-20 02:18 007 6 gusting 10 22.8
2017-Nov-20 02:08 032 6 gusting 10 23.3
2017-Nov-20 01:48 001 0 gusting 7 23.9
2017-Nov-20 01:38 010 4 gusting 7 23.3
2017-Nov-20 01:18 011 6 gusting 13 23.3
2017-Nov-20 01:08 024 5 gusting 8 23.3
2017-Nov-20 00:58 039 1 gusting 11 22.8
2017-Nov-20 00:48 349 5 gusting 10 23.9
2017-Nov-20 00:28 031 5 gusting 8 22.2
2017-Nov-20 00:18 055 0 gusting 6 22.2
2017-Nov-20 00:08 042 0 gusting 5 22.2
2017-Nov-19 23:58 341 21.1
2017-Nov-19 23:48 326 1 gusting 5 22.2
2017-Nov-19 23:38 199 23.3
2017-Nov-19 23:28 230 4 gusting 8 25.6
2017-Nov-19 23:18 182 1 gusting 11 23.9
2017-Nov-19 23:08 187 5 gusting 11 23.9
2017-Nov-19 22:58 155 2 gusting 13 23.9
2017-Nov-19 22:48 236 5 gusting 10 24.4
2017-Nov-19 22:28 104 2 gusting 13 24.4
2017-Nov-19 22:18 148 5 gusting 13 23.9
2017-Nov-19 22:08 183 1 gusting 8 23.3
2017-Nov-19 21:58 126 5 gusting 12 22.2
2017-Nov-19 21:48 158 4 gusting 11 23.3
2017-Nov-19 21:38 107 0 gusting 12 22.8
2017-Nov-19 21:28 157 4 gusting 11 23.3
2017-Nov-19 21:08 151 4 gusting 11 22.8
2017-Nov-19 20:58 136 4 gusting 10 22.8
2017-Nov-19 20:48 201 2 gusting 11 21.7
2017-Nov-19 20:28 147 6 gusting 14 20.6
2017-Nov-19 20:18 113 9 gusting 15 19.4
2017-Nov-19 20:08 144 8 gusting 14 17.8
2017-Nov-19 19:58 165 6 gusting 14 18.3
2017-Nov-19 19:48 159 7 gusting 13 17.8
2017-Nov-19 19:38 213 3 gusting 13 17.2
2017-Nov-19 19:28 161 5 gusting 13 16.7
2017-Nov-19 19:18 162 8 gusting 18 16.7
2017-Nov-19 19:08 153 6 gusting 12 16.7
2017-Nov-19 18:58 184 4 gusting 12 16.7
2017-Nov-19 18:48 186 6 gusting 13 16.1
2017-Nov-19 18:18 164 5 gusting 10 14.4
2017-Nov-19 18:08 196 2 gusting 8 14.4
2017-Nov-19 17:58 162 3 gusting 10 14.4
2017-Nov-19 17:48 146 4 gusting 8 14.4
2017-Nov-19 17:38 154 4 gusting 12 13.9
2017-Nov-19 17:28 177 2 gusting 7 13.9
2017-Nov-19 17:08 174 1 gusting 7 13.9
2017-Nov-19 16:58 177 1 gusting 7 14.4
2017-Nov-19 16:28 185 0 gusting 4 14.4
2017-Nov-19 15:58 174 0 gusting 5 13.9
2017-Nov-19 15:18 165 1 gusting 6 13.9
2017-Nov-19 15:08 166 1 gusting 7 13.9
2017-Nov-19 14:48 168 0 gusting 4 13.9
2017-Nov-19 14:18 188 1 gusting 7 14.4
2017-Nov-19 14:08 154 2 gusting 6 14.4
2017-Nov-19 13:58 209 1 gusting 6 14.4
2017-Nov-19 13:48 169 2 gusting 7 14.4
2017-Nov-19 13:38 173 0 gusting 6 14.4
2017-Nov-19 13:28 179 14.4
2017-Nov-19 13:08 197 0 gusting 5 14.4
2017-Nov-19 12:58 190 0 gusting 5 14.4
2017-Nov-19 12:38 180 0 gusting 6 14.4
2017-Nov-19 12:08 161 0 gusting 6 14.4
2017-Nov-19 11:58 178 2 gusting 10 14.4
2017-Nov-19 11:48 164 3 gusting 7 14.4
2017-Nov-19 11:38 171 6 gusting 11 14.4
2017-Nov-19 11:18 194 3 gusting 8 14.4
2017-Nov-19 11:08 170 2 gusting 11 14.4
2017-Nov-19 10:58 181 1 gusting 7 14.4
2017-Nov-19 10:48 178 1 gusting 7 14.4
2017-Nov-19 10:18 148 6 gusting 12 15.0
2017-Nov-19 10:08 190 6 gusting 11 14.4
2017-Nov-19 09:58 186 0 gusting 5 14.4
2017-Nov-19 09:38 178 1 gusting 6 14.4
2017-Nov-19 09:18 142 2 gusting 7 14.4
2017-Nov-19 09:08 149 1 gusting 6 14.4
2017-Nov-19 08:48 149 3 gusting 12 15.0
2017-Nov-19 08:38 157 4 gusting 12 15.0
2017-Nov-19 08:18 141 4 gusting 12 15.6
2017-Nov-19 08:08 146 3 gusting 10 16.1
2017-Nov-19 07:58 194 5 gusting 11 16.1
2017-Nov-19 07:38 172 4 gusting 13 16.1
2017-Nov-19 07:28 167 1 gusting 7 16.1
2017-Nov-19 07:18 200 4 gusting 11 16.1
2017-Nov-19 07:08 187 5 gusting 12 16.1
2017-Nov-19 06:58 189 4 gusting 12 16.1
2017-Nov-19 06:48 157 6 gusting 12 16.1
2017-Nov-19 06:28 188 6 gusting 13 16.7
2017-Nov-19 06:08 165 5 gusting 13 16.7
2017-Nov-19 05:58 152 4 gusting 10 17.2
2017-Nov-19 05:48 156 8 gusting 14 17.2
2017-Nov-19 05:38 175 6 gusting 14 17.8
2017-Nov-19 05:18 215 8 gusting 15 18.3
2017-Nov-19 04:58 190 11 gusting 15 18.3
2017-Nov-19 04:38 134 6 gusting 14 18.3
2017-Nov-19 04:18 173 8 gusting 14 17.8
2017-Nov-19 04:08 189 10 gusting 18 17.8
2017-Nov-19 03:58 176 11 gusting 18 17.8
2017-Nov-19 03:48 170 11 gusting 21 18.3
2017-Nov-19 03:38 179 11 gusting 24 18.3
2017-Nov-19 03:28 197 13 gusting 24 18.9
2017-Nov-19 03:08 200 6 gusting 22 19.4
2017-Nov-19 02:58 184 13 gusting 24 20.6
2017-Nov-19 02:48 176 12 gusting 21 19.4
2017-Nov-19 02:38 203 8 gusting 20 19.4
2017-Nov-19 02:28 179 8 gusting 18 19.4
2017-Nov-19 02:18 190 6 gusting 15 18.9
2017-Nov-19 02:08 191 10 gusting 15 18.3
2017-Nov-19 01:48 139 8 gusting 15 18.9
2017-Nov-19 01:38 145 6 gusting 21 19.4
2017-Nov-19 01:28 149 13 gusting 19 20.6
2017-Nov-19 01:08 183 9 gusting 21 18.9
2017-Nov-19 00:48 163 10 gusting 13 18.3
2017-Nov-19 00:38 202 6 gusting 26 17.8
2017-Nov-19 00:28 174 10 gusting 26 17.8
2017-Nov-19 00:18 156 13 gusting 21 18.3
2017-Nov-18 23:58 164 10 gusting 18 17.8
2017-Nov-18 23:38 144 11 gusting 20 18.3
2017-Nov-18 23:18 181 8 gusting 19 18.3
2017-Nov-18 23:08 155 7 gusting 15 16.7
2017-Nov-18 22:58 167 10 gusting 15 16.1
2017-Nov-18 22:48 121 5 gusting 13 16.7
2017-Nov-18 22:38 150 8 gusting 14 15.0
2017-Nov-18 22:28 163 6 gusting 13 14.4
2017-Nov-18 22:18 145 3 gusting 11 14.4
2017-Nov-18 22:08 120 6 gusting 8 13.9
2017-Nov-18 21:58 149 2 gusting 8 13.9
2017-Nov-18 21:38 170 3 gusting 12 13.9
2017-Nov-18 21:28 165 4 gusting 13 13.3
2017-Nov-18 21:18 169 6 gusting 13 13.3
2017-Nov-18 21:08 171 7 gusting 13 12.8